Language: 


Des rapports , des résumés tant et plus, au choix de chacun....


Données statistiques de la station
Quotidien Rapport Février 14, 2017 Unités:  Métrique    Anglais   les deux
« Précédent Jour
Suivant Jour »
Quotidien Hebdomadaire Mensuel Annuel Actuel
  Haut: Bas: Moyen:
Température: 16.0 °C 1.6 °C 7.5 °C
Pt de rosée: 5.6 °C -1.2 °C 2.1 °C
Humidité: 83 % 49 % 70 %
Vitesse du vent: 14.0 km/h 0.0 km/h 5.6 km/h
Rafales: 17.2 km/h - -
Vent:- - SE
Pression: 1029.0 hPa 1020.9 hPa -
Précipitation: 0.0 mm    
Historical Graphs
 
 
Données statistiques pour Février 14, 2017
Heure Température Point de rosée Pression Vent Vitesse du vent Refales Humidité Pluie (taux horaire)
00:02 3.1 °C -0.2 °C 1020.9 hPa East 8.7 km/h 10.5 km/h 79 % 0.0 mm
00:07 3.1 °C -0.3 °C 1020.9 hPa East 5.8 km/h 10.1 km/h 79 % 0.0 mm
00:12 2.9 °C -0.5 °C 1020.9 hPa Calm   9.7 km/h 78 % 0.0 mm
00:17 2.8 °C -0.4 °C 1020.9 hPa East 1.8 km/h 9.0 km/h 79 % 0.0 mm
00:22 2.7 °C -0.6 °C 1020.9 hPa ENE 2.6 km/h 9.3 km/h 79 % 0.0 mm
00:27 2.7 °C -0.6 °C 1020.9 hPa ENE 6.1 km/h 9.3 km/h 79 % 0.0 mm
00:32 2.7 °C -0.6 °C 1020.9 hPa East 6.9 km/h 9.3 km/h 79 % 0.0 mm
00:37 2.6 °C -0.7 °C 1020.9 hPa ENE 4.7 km/h 9.3 km/h 79 % 0.0 mm
00:42 2.6 °C -0.6 °C 1020.9 hPa East 7.9 km/h 9.3 km/h 80 % 0.0 mm
00:47 2.4 °C -0.8 °C 1020.9 hPa Calm   7.9 km/h 79 % 0.0 mm
00:52 2.3 °C -0.9 °C 1020.9 hPa ENE 1.4 km/h 7.9 km/h 79 % 0.0 mm
00:57 2.3 °C -1.0 °C 1020.9 hPa NE 5.0 km/h 7.9 km/h 79 % 0.0 mm
01:02 2.3 °C -0.8 °C 1020.9 hPa ENE 4.7 km/h 6.9 km/h 80 % 0.0 mm
01:07 2.2 °C -0.9 °C 1020.9 hPa NE 6.4 km/h 7.6 km/h 80 % 0.0 mm
01:12 2.1 °C -1.1 °C 1020.9 hPa ENE 8.7 km/h 8.7 km/h 80 % 0.0 mm
01:18 2.1 °C -0.9 °C 1020.9 hPa East 1.4 km/h 9.3 km/h 81 % 0.0 mm
01:23 2.1 °C -0.9 °C 1020.9 hPa NE 3.2 km/h 9.3 km/h 81 % 0.0 mm
01:28 2.1 °C -0.7 °C 1020.9 hPa East 6.9 km/h 8.7 km/h 82 % 0.0 mm
01:33 2.1 °C -0.7 °C 1020.9 hPa East 5.5 km/h 8.7 km/h 82 % 0.0 mm
01:38 2.1 °C -0.7 °C 1020.9 hPa East 5.0 km/h 9.0 km/h 82 % 0.0 mm
01:43 2.1 °C -0.7 °C 1020.9 hPa East 5.8 km/h 9.0 km/h 82 % 0.0 mm
01:48 2.2 °C -0.6 °C 1020.9 hPa East 4.7 km/h 7.9 km/h 82 % 0.0 mm
01:53 2.2 °C -0.6 °C 1020.9 hPa East 7.9 km/h 9.7 km/h 82 % 0.0 mm
01:58 2.3 °C -0.3 °C 1020.9 hPa ENE 3.2 km/h 10.5 km/h 83 % 0.0 mm
02:03 2.3 °C -0.5 °C 1020.9 hPa ENE 3.2 km/h 8.5 km/h 82 % 0.0 mm
02:08 2.3 °C -0.5 °C 1020.9 hPa East 9.3 km/h 9.3 km/h 82 % 0.0 mm
02:13 2.3 °C -0.5 °C 1020.9 hPa East 9.3 km/h 9.3 km/h 82 % 0.0 mm
02:18 2.3 °C -0.5 °C 1020.9 hPa ESE 6.9 km/h 9.7 km/h 82 % 0.0 mm
02:23 2.3 °C -0.5 °C 1021.9 hPa ENE 8.7 km/h 9.7 km/h 82 % 0.0 mm
02:28 2.3 °C -0.5 °C 1021.9 hPa East 7.9 km/h 9.7 km/h 82 % 0.0 mm
02:38 2.3 °C -0.5 °C 1021.9 hPa East 6.9 km/h 11.9 km/h 82 % 0.0 mm
02:43 2.3 °C -0.5 °C 1021.9 hPa East 2.6 km/h 9.3 km/h 82 % 0.0 mm
02:48 2.3 °C -0.5 °C 1021.9 hPa East 5.5 km/h 10.5 km/h 82 % 0.0 mm
02:53 2.3 °C -0.5 °C 1021.9 hPa East 6.9 km/h 10.5 km/h 82 % 0.0 mm
02:58 2.2 °C -0.6 °C 1021.9 hPa ESE 6.1 km/h 9.7 km/h 82 % 0.0 mm
03:03 2.2 °C -0.6 °C 1021.9 hPa East 8.7 km/h 10.1 km/h 82 % 0.0 mm
03:08 2.2 °C -0.6 °C 1021.9 hPa ESE 9.3 km/h 10.1 km/h 82 % 0.0 mm
03:13 2.3 °C -0.5 °C 1021.9 hPa East 9.0 km/h 9.7 km/h 82 % 0.0 mm
03:18 2.3 °C -0.5 °C 1021.9 hPa East 7.6 km/h 11.9 km/h 82 % 0.0 mm
03:23 2.3 °C -0.7 °C 1020.9 hPa East 6.9 km/h 11.9 km/h 81 % 0.0 mm
03:28 2.2 °C -0.8 °C 1020.9 hPa East 9.3 km/h 9.7 km/h 81 % 0.0 mm
03:33 2.3 °C -0.7 °C 1020.9 hPa ENE 6.4 km/h 9.7 km/h 81 % 0.0 mm
03:38 2.2 °C -0.8 °C 1021.9 hPa NE 10.1 km/h 10.1 km/h 81 % 0.0 mm
03:43 2.2 °C -0.8 °C 1021.9 hPa ENE 6.4 km/h 10.1 km/h 81 % 0.0 mm
03:48 2.2 °C -0.8 °C 1021.9 hPa East 4.7 km/h 11.9 km/h 81 % 0.0 mm
03:53 2.1 °C -0.9 °C 1020.9 hPa ENE 7.2 km/h 11.9 km/h 81 % 0.0 mm
03:58 2.2 °C -0.8 °C 1020.9 hPa East 10.1 km/h 11.6 km/h 81 % 0.0 mm
04:04 2.1 °C -0.9 °C 1020.9 hPa East 9.0 km/h 12.2 km/h 81 % 0.0 mm
04:08 2.1 °C -0.9 °C 1020.9 hPa East 10.1 km/h 12.2 km/h 81 % 0.0 mm
04:14 2.1 °C -0.9 °C 1020.9 hPa East 5.5 km/h 10.5 km/h 81 % 0.0 mm
04:19 2.1 °C -0.9 °C 1020.9 hPa ESE 7.9 km/h 11.9 km/h 81 % 0.0 mm
04:24 2.1 °C -0.9 °C 1020.9 hPa East 8.7 km/h 11.9 km/h 81 % 0.0 mm
04:29 2.1 °C -0.9 °C 1020.9 hPa East 4.3 km/h 10.8 km/h 81 % 0.0 mm
04:34 2.1 °C -0.9 °C 1020.9 hPa ESE 6.9 km/h 10.8 km/h 81 % 0.0 mm
04:39 2.1 °C -0.9 °C 1020.9 hPa East 9.7 km/h 11.1 km/h 81 % 0.0 mm
04:44 1.9 °C -0.9 °C 1020.9 hPa East 7.9 km/h 11.1 km/h 81 % 0.0 mm
04:49 1.9 °C -0.9 °C 1020.9 hPa East 4.0 km/h 9.7 km/h 81 % 0.0 mm
04:54 1.9 °C -0.9 °C 1020.9 hPa ENE 6.4 km/h 9.7 km/h 81 % 0.0 mm
04:59 1.9 °C -0.9 °C 1020.9 hPa East 6.9 km/h 9.7 km/h 81 % 0.0 mm
05:04 1.9 °C -0.9 °C 1020.9 hPa ESE 5.8 km/h 9.3 km/h 82 % 0.0 mm
05:09 1.9 °C -0.9 °C 1021.9 hPa Calm   8.7 km/h 82 % 0.0 mm
05:14 1.9 °C -0.9 °C 1021.9 hPa East 5.5 km/h 6.9 km/h 82 % 0.0 mm
05:19 1.8 °C -1.0 °C 1021.9 hPa Calm   8.7 km/h 82 % 0.0 mm
05:24 1.8 °C -1.0 °C 1021.9 hPa East 7.6 km/h 8.7 km/h 82 % 0.0 mm
05:29 1.7 °C -1.1 °C 1021.9 hPa Calm   7.9 km/h 82 % 0.0 mm
05:34 1.7 °C -1.1 °C 1021.9 hPa East 6.1 km/h 6.4 km/h 82 % 0.0 mm
05:39 1.7 °C -1.1 °C 1021.9 hPa East 3.2 km/h 6.9 km/h 82 % 0.0 mm
05:44 1.6 °C -1.2 °C 1021.9 hPa East 6.1 km/h 7.6 km/h 82 % 0.0 mm
05:49 1.6 °C -1.0 °C 1021.9 hPa East 6.4 km/h 9.0 km/h 83 % 0.0 mm
05:54 1.7 °C -0.9 °C 1021.9 hPa ESE 5.0 km/h 9.3 km/h 83 % 0.0 mm
05:59 1.7 °C -0.9 °C 1021.9 hPa East 8.7 km/h 10.5 km/h 83 % 0.0 mm
06:04 1.7 °C -0.9 °C 1021.9 hPa ESE 7.9 km/h 10.5 km/h 83 % 0.0 mm
06:09 1.8 °C -0.8 °C 1021.9 hPa ESE 7.9 km/h 11.6 km/h 83 % 0.0 mm
06:10 1.8 °C -0.8 °C 1021.9 hPa ESE 9.7 km/h 11.6 km/h 83 % 0.0 mm
06:15 1.8 °C -0.8 °C 1021.9 hPa East 7.9 km/h 11.6 km/h 83 % 0.0 mm
06:20 1.9 °C -0.7 °C 1021.9 hPa ESE 6.4 km/h 10.5 km/h 83 % 0.0 mm
06:25 1.9 °C -0.7 °C 1021.9 hPa ESE 6.4 km/h 9.3 km/h 83 % 0.0 mm
06:30 1.9 °C -0.7 °C 1021.9 hPa East 6.9 km/h 9.3 km/h 83 % 0.0 mm
06:35 1.9 °C -0.7 °C 1021.9 hPa SE 2.6 km/h 12.6 km/h 83 % 0.0 mm
06:40 1.9 °C -0.9 °C 1021.9 hPa ESE 7.6 km/h 12.6 km/h 82 % 0.0 mm
06:45 1.8 °C -1.0 °C 1021.9 hPa ESE 7.9 km/h 10.1 km/h 82 % 0.0 mm
06:50 1.8 °C -1.0 °C 1021.9 hPa ESE 9.7 km/h 10.1 km/h 82 % 0.0 mm
06:55 1.8 °C -1.0 °C 1021.9 hPa ESE 1.8 km/h 10.5 km/h 82 % 0.0 mm
07:00 1.7 °C -1.1 °C 1021.9 hPa ESE 2.6 km/h 10.5 km/h 82 % 0.0 mm
07:05 1.7 °C -1.1 °C 1021.9 hPa ESE 5.8 km/h 7.9 km/h 82 % 0.0 mm
07:10 1.8 °C -0.8 °C 1021.9 hPa Calm   9.0 km/h 83 % 0.0 mm
07:15 1.8 °C -0.8 °C 1021.9 hPa Calm   9.7 km/h 83 % 0.0 mm
07:20 1.8 °C -0.8 °C 1021.9 hPa East 3.5 km/h 9.7 km/h 83 % 0.0 mm
07:25 1.9 °C -0.7 °C 1022.9 hPa ESE 5.0 km/h 9.7 km/h 83 % 0.0 mm
07:30 1.9 °C -0.8 °C 1022.9 hPa ESE 6.1 km/h 9.3 km/h 82 % 0.0 mm
07:35 1.9 °C -0.8 °C 1022.9 hPa ESE 4.0 km/h 9.0 km/h 82 % 0.0 mm
07:40 1.9 °C -0.8 °C 1022.9 hPa ENE 4.3 km/h 8.7 km/h 82 % 0.0 mm
07:45 1.9 °C -0.8 °C 1022.9 hPa East 5.5 km/h 7.6 km/h 82 % 0.0 mm
07:50 1.9 °C -0.8 °C 1022.9 hPa East 5.5 km/h 6.9 km/h 82 % 0.0 mm
07:55 1.9 °C -0.9 °C 1022.9 hPa East 6.4 km/h 9.3 km/h 81 % 0.0 mm
08:00 1.9 °C -0.9 °C 1022.9 hPa Calm   9.3 km/h 81 % 0.0 mm
08:05 1.9 °C -0.9 °C 1022.9 hPa ESE 4.7 km/h 6.9 km/h 81 % 0.0 mm
08:10 1.9 °C -0.9 °C 1022.9 hPa ESE 4.0 km/h 6.9 km/h 81 % 0.0 mm
08:15 2.1 °C -0.9 °C 1022.9 hPa SSE 1.4 km/h 9.0 km/h 81 % 0.0 mm
08:20 2.3 °C -0.5 °C 1022.9 hPa ESE 1.8 km/h 9.0 km/h 82 % 0.0 mm
08:25 2.3 °C -0.6 °C 1022.9 hPa SE 8.7 km/h 10.5 km/h 81 % 0.0 mm
08:30 2.6 °C -0.4 °C 1022.9 hPa SE 4.3 km/h 12.2 km/h 81 % 0.0 mm
08:35 2.7 °C -0.3 °C 1022.9 hPa ESE 7.9 km/h 12.2 km/h 81 % 0.0 mm
08:40 2.8 °C -0.1 °C 1023.9 hPa SSE 4.0 km/h 9.3 km/h 81 % 0.0 mm
08:45 3.1 °C 0.0 °C 1023.9 hPa SSE 4.7 km/h 11.9 km/h 80 % 0.0 mm
08:50 3.3 °C 0.2 °C 1023.9 hPa SSE 9.3 km/h 11.9 km/h 80 % 0.0 mm
08:55 3.6 °C 0.2 °C 1023.9 hPa SSE 6.1 km/h 11.9 km/h 79 % 0.0 mm
09:00 3.6 °C 0.2 °C 1023.9 hPa SSE 6.9 km/h 11.9 km/h 78 % 0.0 mm
09:05 3.9 °C 0.3 °C 1023.9 hPa SSE 6.1 km/h 10.1 km/h 77 % 0.0 mm
09:10 4.2 °C 0.6 °C 1023.9 hPa SSE 9.7 km/h 14.0 km/h 77 % 0.0 mm
09:16 4.4 °C 0.6 °C 1023.9 hPa SSE 4.0 km/h 14.0 km/h 76 % 0.0 mm
09:21 4.5 °C 0.4 °C 1023.9 hPa SSE 8.7 km/h 13.0 km/h 75 % 0.0 mm
09:26 4.7 °C 0.4 °C 1023.9 hPa SE 6.9 km/h 10.1 km/h 74 % 0.0 mm
09:31 4.9 °C 0.4 °C 1023.9 hPa SE 9.0 km/h 14.0 km/h 73 % 0.0 mm
09:36 5.1 °C 0.4 °C 1023.9 hPa SSE 9.3 km/h 14.0 km/h 72 % 0.0 mm
09:41 5.2 °C 0.6 °C 1024.9 hPa Calm   13.0 km/h 72 % 0.0 mm
09:46 5.5 °C 0.8 °C 1024.9 hPa SSE 8.7 km/h 13.0 km/h 72 % 0.0 mm
09:51 5.7 °C 1.0 °C 1024.9 hPa SSE 3.2 km/h 13.0 km/h 72 % 0.0 mm
09:56 5.8 °C 0.9 °C 1024.9 hPa South 4.0 km/h 11.9 km/h 71 % 0.0 mm
10:01 6.0 °C 0.9 °C 1024.9 hPa South 8.7 km/h 13.0 km/h 70 % 0.0 mm
10:06 6.1 °C 0.8 °C 1024.9 hPa South 6.1 km/h 13.7 km/h 69 % 0.0 mm
10:11 6.3 °C 1.2 °C 1024.9 hPa SSE 1.4 km/h 13.7 km/h 70 % 0.0 mm
10:16 6.6 °C 1.3 °C 1024.9 hPa SE 6.9 km/h 14.0 km/h 69 % 0.0 mm
10:21 6.8 °C 1.4 °C 1024.9 hPa SSE 10.1 km/h 15.8 km/h 69 % 0.0 mm
10:26 6.9 °C 1.4 °C 1023.9 hPa East 5.5 km/h 15.8 km/h 68 % 0.0 mm
10:31 7.3 °C 1.7 °C 1023.9 hPa SE 5.8 km/h 13.7 km/h 68 % 0.0 mm
10:36 7.6 °C 1.8 °C 1023.9 hPa SE 6.9 km/h 13.7 km/h 67 % 0.0 mm
10:41 7.7 °C 1.7 °C 1023.9 hPa SSE 10.5 km/h 12.2 km/h 66 % 0.0 mm
10:46 7.9 °C 1.9 °C 1023.9 hPa SSE 4.7 km/h 12.2 km/h 66 % 0.0 mm
10:51 8.2 °C 1.8 °C 1023.9 hPa SSE 6.4 km/h 10.1 km/h 64 % 0.0 mm
10:56 8.4 °C 2.2 °C 1024.9 hPa SSE 7.6 km/h 11.9 km/h 65 % 0.0 mm
11:01 8.6 °C 1.9 °C 1024.9 hPa SSE 8.7 km/h 11.9 km/h 63 % 0.0 mm
11:06 8.9 °C 2.0 °C 1024.9 hPa SSE 5.0 km/h 9.7 km/h 62 % 0.0 mm
11:11 9.1 °C 2.0 °C 1024.9 hPa SE 6.9 km/h 10.1 km/h 61 % 0.0 mm
11:16 9.3 °C 2.2 °C 1024.9 hPa SSE 6.4 km/h 10.1 km/h 61 % 0.0 mm
11:21 9.7 °C 2.6 °C 1024.9 hPa SE 5.0 km/h 9.7 km/h 61 % 0.0 mm
11:26 9.9 °C 2.7 °C 1024.9 hPa Calm   9.3 km/h 61 % 0.0 mm
11:31 10.2 °C 3.0 °C 1024.9 hPa Calm   9.3 km/h 61 % 0.0 mm
11:36 10.4 °C 2.7 °C 1024.9 hPa South 4.3 km/h 9.0 km/h 59 % 0.0 mm
11:41 10.7 °C 3.0 °C 1023.9 hPa Calm   6.4 km/h 59 % 0.0 mm
11:46 10.9 °C 2.9 °C 1023.9 hPa SE 10.1 km/h 11.6 km/h 58 % 0.0 mm
11:51 11.0 °C 3.0 °C 1023.9 hPa ESE 6.9 km/h 11.6 km/h 58 % 0.0 mm
11:56 11.2 °C 2.9 °C 1024.9 hPa SSE 4.7 km/h 10.1 km/h 57 % 0.0 mm
12:01 11.6 °C 3.3 °C 1024.9 hPa SE 5.0 km/h 12.6 km/h 57 % 0.0 mm
12:06 11.8 °C 3.3 °C 1024.9 hPa SSE 6.9 km/h 12.6 km/h 56 % 0.0 mm
12:11 11.8 °C 3.0 °C 1023.9 hPa ESE 5.8 km/h 9.7 km/h 55 % 0.0 mm
12:16 11.8 °C 3.1 °C 1023.9 hPa SE 7.9 km/h 13.7 km/h 55 % 0.0 mm
12:21 11.9 °C 3.2 °C 1023.9 hPa ENE 10.5 km/h 13.7 km/h 55 % 0.0 mm
12:27 12.2 °C 3.4 °C 1024.9 hPa South 7.9 km/h 11.9 km/h 55 % 0.0 mm
12:32 12.3 °C 3.3 °C 1024.9 hPa SSE 7.9 km/h 11.9 km/h 54 % 0.0 mm
12:37 12.4 °C 3.1 °C 1024.9 hPa SSE 10.8 km/h 13.7 km/h 53 % 0.0 mm
12:42 12.6 °C 3.2 °C 1024.9 hPa SE 10.1 km/h 14.8 km/h 53 % 0.0 mm
12:47 12.7 °C 3.4 °C 1024.9 hPa SSE 5.8 km/h 14.8 km/h 53 % 0.0 mm
12:52 12.8 °C 3.5 °C 1024.9 hPa SSE 9.7 km/h 14.0 km/h 53 % 0.0 mm
12:57 13.1 °C 3.7 °C 1024.9 hPa South 5.5 km/h 14.0 km/h 53 % 0.0 mm
13:02 13.2 °C 3.8 °C 1024.9 hPa SSE 9.7 km/h 13.7 km/h 53 % 0.0 mm
13:07 13.3 °C 3.9 °C 1024.9 hPa SSE 4.3 km/h 12.6 km/h 53 % 0.0 mm
13:12 13.5 °C 4.1 °C 1023.9 hPa SSE 5.8 km/h 12.2 km/h 53 % 0.0 mm
13:17 13.7 °C 4.1 °C 1023.9 hPa SSE 11.9 km/h 11.9 km/h 52 % 0.0 mm
13:22 13.7 °C 4.1 °C 1023.9 hPa SSE 2.6 km/h 16.6 km/h 52 % 0.0 mm
13:27 13.8 °C 4.1 °C 1024.9 hPa SSE 7.6 km/h 17.2 km/h 52 % 0.0 mm
13:32 14.1 °C 4.7 °C 1024.9 hPa SE 10.1 km/h 17.2 km/h 53 % 0.0 mm
13:37 14.0 °C 4.0 °C 1024.9 hPa SE 13.0 km/h 17.2 km/h 51 % 0.0 mm
13:42 13.9 °C 3.9 °C 1024.9 hPa SE 10.1 km/h 17.2 km/h 51 % 0.0 mm
13:47 14.1 °C 4.1 °C 1024.9 hPa SE 5.5 km/h 16.9 km/h 51 % 0.0 mm
13:52 14.4 °C 4.7 °C 1024.9 hPa SSE 11.6 km/h 16.3 km/h 52 % 0.0 mm
13:57 14.5 °C 4.8 °C 1024.9 hPa SSE 7.6 km/h 16.3 km/h 52 % 0.0 mm
14:02 14.8 °C 5.1 °C 1024.9 hPa ESE 9.0 km/h 11.9 km/h 52 % 0.0 mm
14:07 14.7 °C 4.7 °C 1024.9 hPa SE 9.7 km/h 13.0 km/h 51 % 0.0 mm
14:12 14.7 °C 4.7 °C 1024.9 hPa SE 10.5 km/h 14.8 km/h 51 % 0.0 mm
14:17 14.8 °C 4.7 °C 1024.9 hPa SSE 8.7 km/h 14.8 km/h 51 % 0.0 mm
14:22 14.9 °C 4.8 °C 1024.9 hPa SE 8.7 km/h 11.9 km/h 51 % 0.0 mm
14:27 15.0 °C 4.7 °C 1024.9 hPa SE 8.7 km/h 14.0 km/h 50 % 0.0 mm
14:32 15.0 °C 4.7 °C 1024.9 hPa SSE 9.3 km/h 15.8 km/h 50 % 0.0 mm
14:37 15.3 °C 5.2 °C 1024.9 hPa SSE 9.7 km/h 15.8 km/h 51 % 0.0 mm
14:42 15.3 °C 4.9 °C 1024.9 hPa South 6.4 km/h 15.8 km/h 50 % 0.0 mm
14:47 15.4 °C 4.7 °C 1024.9 hPa SE 14.0 km/h 15.8 km/h 49 % 0.0 mm
14:52 15.5 °C 5.1 °C 1024.9 hPa SSE 4.7 km/h 14.0 km/h 50 % 0.0 mm
14:57 15.6 °C 5.2 °C 1024.9 hPa SSE 7.6 km/h 14.0 km/h 50 % 0.0 mm
15:02 15.7 °C 5.3 °C 1024.9 hPa South 12.6 km/h 12.6 km/h 50 % 0.0 mm
15:07 15.9 °C 5.4 °C 1024.9 hPa SSE 6.1 km/h 12.6 km/h 50 % 0.0 mm
15:12 16.0 °C 5.6 °C 1024.9 hPa South 6.4 km/h 12.6 km/h 50 % 0.0 mm
15:17 16.0 °C 5.6 °C 1024.9 hPa South 6.9 km/h 13.7 km/h 50 % 0.0 mm
15:22 15.8 °C 5.4 °C 1026.0 hPa South 4.0 km/h 13.7 km/h 50 % 0.0 mm
15:27 15.8 °C 5.4 °C 1026.0 hPa South 6.9 km/h 14.0 km/h 50 % 0.0 mm
15:32 15.7 °C 5.3 °C 1026.0 hPa SSE 4.3 km/h 14.0 km/h 50 % 0.0 mm
15:37 15.6 °C 5.2 °C 1026.0 hPa SE 8.7 km/h 14.0 km/h 50 % 0.0 mm
15:42 15.6 °C 5.2 °C 1026.0 hPa SSE 9.0 km/h 14.0 km/h 50 % 0.0 mm
15:47 15.5 °C 5.1 °C 1026.0 hPa SSE 12.2 km/h 16.6 km/h 50 % 0.0 mm
15:52 15.4 °C 5.0 °C 1026.0 hPa South 9.7 km/h 16.6 km/h 50 % 0.0 mm
15:57 14.9 °C 4.6 °C 1026.0 hPa SSE 9.0 km/h 17.2 km/h 50 % 0.0 mm
16:02 14.5 °C 4.5 °C 1026.0 hPa South 6.4 km/h 17.2 km/h 51 % 0.0 mm
16:07 14.3 °C 4.3 °C 1026.0 hPa Calm   14.0 km/h 51 % 0.0 mm
16:12 14.2 °C 4.5 °C 1026.0 hPa SSE 6.4 km/h 14.0 km/h 52 % 0.0 mm
16:18 14.4 °C 4.9 °C 1026.0 hPa SSE 6.4 km/h 12.6 km/h 53 % 0.0 mm
16:23 14.5 °C 5.3 °C 1026.0 hPa SSE 7.6 km/h 12.6 km/h 54 % 0.0 mm
16:28 14.4 °C 5.2 °C 1026.0 hPa Calm   13.0 km/h 54 % 0.0 mm
16:33 14.2 °C 5.0 °C 1026.0 hPa South 5.8 km/h 13.0 km/h 54 % 0.0 mm
16:38 14.2 °C 5.3 °C 1026.0 hPa SSW 2.1 km/h 9.7 km/h 55 % 0.0 mm
16:43 14.1 °C 5.4 °C 1026.0 hPa SSW 2.1 km/h 10.5 km/h 56 % 0.0 mm
16:48 13.9 °C 5.3 °C 1026.0 hPa Calm   11.6 km/h 56 % 0.0 mm
16:53 13.9 °C 5.3 °C 1026.0 hPa SSE 5.0 km/h 14.0 km/h 56 % 0.0 mm
16:58 13.8 °C 5.2 °C 1026.0 hPa SE 6.9 km/h 14.0 km/h 56 % 0.0 mm
17:03 13.7 °C 5.1 °C 1026.0 hPa SSE 3.5 km/h 8.7 km/h 56 % 0.0 mm
17:08 13.5 °C 5.2 °C 1026.0 hPa Calm   8.7 km/h 57 % 0.0 mm
17:13 13.3 °C 5.0 °C 1026.0 hPa SSE 1.4 km/h 9.7 km/h 57 % 0.0 mm
17:18 13.1 °C 4.8 °C 1026.0 hPa SE 9.0 km/h 11.6 km/h 57 % 0.0 mm
17:23 12.9 °C 4.6 °C 1026.0 hPa SE 5.5 km/h 11.6 km/h 57 % 0.0 mm
17:28 12.8 °C 4.8 °C 1026.0 hPa SE 3.2 km/h 10.5 km/h 58 % 0.0 mm
17:33 12.7 °C 4.6 °C 1026.0 hPa SE 7.9 km/h 11.6 km/h 58 % 0.0 mm
17:38 12.4 °C 4.7 °C 1026.0 hPa SSE 2.6 km/h 11.6 km/h 59 % 0.0 mm
17:43 12.2 °C 4.4 °C 1026.0 hPa SE 6.4 km/h 9.3 km/h 59 % 0.0 mm
17:48 11.9 °C 4.4 °C 1026.0 hPa Calm   7.2 km/h 60 % 0.0 mm
17:53 11.8 °C 4.6 °C 1026.0 hPa East 6.4 km/h 10.5 km/h 61 % 0.0 mm
17:58 11.7 °C 4.6 °C 1026.0 hPa Calm   10.5 km/h 62 % 0.0 mm
18:03 11.4 °C 4.4 °C 1026.0 hPa Calm   7.9 km/h 62 % 0.0 mm
18:08 11.4 °C 4.3 °C 1026.0 hPa Calm   7.9 km/h 62 % 0.0 mm
18:13 11.1 °C 4.3 °C 1026.0 hPa Calm   6.1 km/h 63 % 0.0 mm
18:18 10.8 °C 4.0 °C 1026.0 hPa Calm     63 % 0.0 mm
18:23 10.6 °C 4.1 °C 1026.0 hPa Calm   4.7 km/h 64 % 0.0 mm
18:28 10.5 °C 4.2 °C 1026.0 hPa SE 7.6 km/h 7.6 km/h 65 % 0.0 mm
18:33 10.4 °C 4.3 °C 1026.0 hPa Calm   7.6 km/h 66 % 0.0 mm
18:38 10.1 °C 4.0 °C 1027.0 hPa Calm   7.6 km/h 66 % 0.0 mm
18:43 9.9 °C 3.8 °C 1027.0 hPa Calm   3.2 km/h 66 % 0.0 mm
18:48 9.8 °C 3.9 °C 1027.0 hPa ESE 5.0 km/h 5.5 km/h 67 % 0.0 mm
18:53 9.9 °C 4.3 °C 1027.0 hPa Calm   6.9 km/h 68 % 0.0 mm
18:58 10.0 °C 4.3 °C 1027.0 hPa SSE 5.5 km/h 6.9 km/h 68 % 0.0 mm
19:03 10.0 °C 4.3 °C 1027.0 hPa Calm   8.7 km/h 68 % 0.0 mm
19:08 10.0 °C 4.3 °C 1027.0 hPa Calm   8.7 km/h 68 % 0.0 mm
19:13 10.0 °C 4.6 °C 1027.0 hPa Calm   6.9 km/h 69 % 0.0 mm
19:18 9.9 °C 4.4 °C 1027.0 hPa Calm   3.2 km/h 69 % 0.0 mm
19:23 9.7 °C 4.3 °C 1026.0 hPa Calm   4.7 km/h 69 % 0.0 mm
19:28 9.5 °C 4.1 °C 1026.0 hPa Calm   4.7 km/h 69 % 0.0 mm
19:33 9.4 °C 4.0 °C 1026.0 hPa Calm   6.4 km/h 69 % 0.0 mm
19:38 9.2 °C 4.0 °C 1027.0 hPa Calm   6.4 km/h 70 % 0.0 mm
19:39 9.2 °C 4.0 °C 1027.0 hPa Calm   4.3 km/h 70 % 0.0 mm
19:44 9.1 °C 3.9 °C 1027.0 hPa Calm     70 % 0.0 mm
19:49 8.9 °C 3.7 °C 1027.0 hPa Calm     70 % 0.0 mm
19:54 8.7 °C 3.8 °C 1026.0 hPa Calm     71 % 0.0 mm
19:59 8.6 °C 3.7 °C 1026.0 hPa Calm   4.3 km/h 71 % 0.0 mm
20:04 8.6 °C 3.8 °C 1026.0 hPa Calm   4.3 km/h 72 % 0.0 mm
20:09 8.5 °C 3.8 °C 1027.0 hPa Calm   4.3 km/h 72 % 0.0 mm
20:14 8.6 °C 4.1 °C 1027.0 hPa Calm   6.4 km/h 73 % 0.0 mm
20:19 8.8 °C 4.2 °C 1027.0 hPa SSE 5.5 km/h 9.7 km/h 73 % 0.0 mm
20:24 9.1 °C 4.5 °C 1027.0 hPa SSE 6.1 km/h 12.6 km/h 73 % 0.0 mm
20:29 9.2 °C 4.6 °C 1027.0 hPa South 9.0 km/h 14.3 km/h 73 % 0.0 mm
20:34 9.3 °C 4.7 °C 1027.0 hPa SSE 5.0 km/h 14.3 km/h 73 % 0.0 mm
20:39 9.5 °C 4.9 °C 1026.0 hPa SSE 8.7 km/h 12.6 km/h 73 % 0.0 mm
20:44 9.5 °C 4.9 °C 1026.0 hPa SSE 8.7 km/h 12.6 km/h 73 % 0.0 mm
20:50 9.5 °C 4.9 °C 1026.0 hPa South 6.4 km/h 13.0 km/h 73 % 0.0 mm
20:55 9.4 °C 4.8 °C 1027.0 hPa SSE 9.0 km/h 13.0 km/h 73 % 0.0 mm
20:59 9.4 °C 4.6 °C 1027.0 hPa SSE 7.9 km/h 14.0 km/h 72 % 0.0 mm
21:05 9.3 °C 4.5 °C 1027.0 hPa SSE 8.7 km/h 14.0 km/h 72 % 0.0 mm
21:10 9.3 °C 4.5 °C 1028.0 hPa South 9.0 km/h 12.6 km/h 72 % 0.0 mm
21:15 9.2 °C 4.4 °C 1028.0 hPa SSE 10.8 km/h 15.8 km/h 72 % 0.0 mm
21:20 9.2 °C 4.4 °C 1028.0 hPa SE 9.3 km/h 15.8 km/h 72 % 0.0 mm
21:25 9.2 °C 4.4 °C 1028.0 hPa SSE 7.9 km/h 14.0 km/h 72 % 0.0 mm
21:30 9.2 °C 4.4 °C 1028.0 hPa South 4.7 km/h 14.8 km/h 72 % 0.0 mm
21:35 9.2 °C 4.4 °C 1028.0 hPa South 6.9 km/h 14.8 km/h 72 % 0.0 mm
21:40 9.2 °C 4.4 °C 1028.0 hPa South 10.5 km/h 14.0 km/h 72 % 0.0 mm
21:45 9.3 °C 4.5 °C 1028.0 hPa SE 8.7 km/h 12.6 km/h 72 % 0.0 mm
21:50 9.4 °C 4.6 °C 1028.0 hPa SSE 6.4 km/h 12.6 km/h 72 % 0.0 mm
21:55 9.4 °C 4.4 °C 1028.0 hPa South 12.2 km/h 12.6 km/h 71 % 0.0 mm
22:00 9.5 °C 4.5 °C 1028.0 hPa South 6.9 km/h 14.0 km/h 71 % 0.0 mm
22:05 9.5 °C 4.5 °C 1028.0 hPa SSE 6.9 km/h 14.0 km/h 71 % 0.0 mm
22:10 9.4 °C 4.4 °C 1028.0 hPa SE 9.3 km/h 14.0 km/h 71 % 0.0 mm
22:15 9.4 °C 4.2 °C 1028.0 hPa South 9.7 km/h 11.9 km/h 70 % 0.0 mm
22:20 9.3 °C 4.1 °C 1028.0 hPa South 5.8 km/h 13.0 km/h 70 % 0.0 mm
22:25 9.2 °C 4.0 °C 1028.0 hPa South 4.7 km/h 13.0 km/h 70 % 0.0 mm
22:30 9.1 °C 3.9 °C 1028.0 hPa SSE 5.5 km/h 10.8 km/h 70 % 0.0 mm
22:35 8.9 °C 3.7 °C 1028.0 hPa SE 1.8 km/h 9.3 km/h 70 % 0.0 mm
22:40 8.7 °C 3.6 °C 1029.0 hPa SSE 4.3 km/h 9.3 km/h 70 % 0.0 mm
22:45 8.6 °C 3.4 °C 1029.0 hPa South 9.0 km/h 9.0 km/h 70 % 0.0 mm
22:50 8.6 °C 3.4 °C 1029.0 hPa Calm   10.1 km/h 70 % 0.0 mm
22:55 8.5 °C 3.4 °C 1028.0 hPa South 2.1 km/h 10.1 km/h 70 % 0.0 mm
23:00 8.3 °C 3.2 °C 1028.0 hPa Calm   8.7 km/h 70 % 0.0 mm
23:05 8.3 °C 3.4 °C 1028.0 hPa SSE 7.6 km/h 9.3 km/h 71 % 0.0 mm
23:10 8.2 °C 3.3 °C 1028.0 hPa Calm   9.3 km/h 71 % 0.0 mm
23:16 8.1 °C 3.2 °C 1028.0 hPa Calm   10.1 km/h 71 % 0.0 mm
23:21 7.9 °C 3.0 °C 1028.0 hPa SSE 6.4 km/h 10.1 km/h 71 % 0.0 mm
23:26 7.8 °C 2.9 °C 1028.0 hPa SE 9.3 km/h 9.3 km/h 71 % 0.0 mm
23:31 7.8 °C 3.1 °C 1028.0 hPa SSE 5.8 km/h 9.3 km/h 72 % 0.0 mm
23:36 7.7 °C 3.0 °C 1028.0 hPa Calm   7.9 km/h 72 % 0.0 mm
23:41 7.7 °C 2.9 °C 1028.0 hPa South 4.0 km/h 9.0 km/h 72 % 0.0 mm
23:46 7.7 °C 3.1 °C 1028.0 hPa SE 5.0 km/h 10.5 km/h 73 % 0.0 mm
23:51 7.7 °C 3.1 °C 1028.0 hPa Calm   10.5 km/h 73 % 0.0 mm
23:56 7.6 °C 3.0 °C 1029.0 hPa SSE 5.8 km/h 9.7 km/h 73 % 0.0 mm
Le Gheer Warneton
Courtoisie de Weather Underground - 2.25 mb

Mise a jour : 18/12/2017 23:07:11
Généré par Cumulus 1.9.4 (1099)